Latest Weather Observations for Coles Point

IDS60801

Issued at 11:01 am CST Saturday 2 July 2016 (issued every 30 minutes, with the page automatically refreshed every 10 minutes)

About weather observations | Map of weather stations | Latest weather observations for SA | Other Formats
Station Details ID: 018191 Name: COLES POINT Lat: -34.37 Lon: 135.37 Height: 28.0 m
Data from the previous 72 hours. | See also: Recent months at Coles Point
Date/Time
CST
Temp
°C
App
Temp
°C
Dew
Point
°C
Rel
Hum
%
Delta-T
°C
Wind Press
QNH
hPa
Press
MSL
hPa
Rain since
9am
mm
Dir  Spd
km/h
Gust
km/h
Spd
kts
Gust
kts
02/11:00am 14.1 12.5 11.4 84 1.4 NW 11 17 6 9 1030.4 1030.4 0.0
02/10:30am 12.9 12.3 12.4 97 0.3 NE 7 11 4 6 1030.6 1030.6 0.0
02/10:00am 12.0 10.4 11.7 98 0.2 NE 11 13 6 7 1030.6 1030.6 0.0
02/09:30am 11.5 10.2 11.2 98 0.2 NE 9 11 5 6 1030.4 1030.4 0.0
02/09:00am 11.0 9.6 10.8 99 0.1 ENE 9 13 5 7 1030.2 1030.2 3.4
02/08:30am 10.8 8.5 10.6 99 0.1 NE 13 15 7 8 1030.0 1030.0 3.4
02/08:00am 10.4 8.0 10.1 98 0.2 NE 13 15 7 8 1029.8 1029.8 3.4
02/07:30am 9.8 7.6 9.3 97 0.2 ENE 11 13 6 7 1029.4 1029.4 3.4
02/07:00am 10.2 8.4 9.6 96 0.3 ENE 9 13 5 7 1029.2 1029.2 3.4
02/06:30am 10.2 7.6 9.4 95 0.4 ENE 13 15 7 8 1028.9 1028.9 3.4
02/06:00am 10.4 7.8 9.3 93 0.5 ENE 13 17 7 9 1028.6 1028.6 3.4
02/05:30am 10.7 8.6 9.6 93 0.5 ENE 11 17 6 9 1028.4 1028.4 3.4
02/05:00am 10.5 8.2 8.9 90 0.8 ENE 11 15 6 8 1028.2 1028.2 3.4
02/04:30am 10.9 9.9 8.7 86 1.1 WNW 4 6 2 3 1028.2 1028.2 3.4
02/04:00am 11.5 9.6 8.9 84 1.3 NNW 9 15 5 8 1028.3 1028.3 3.4
02/03:30am 11.0 10.1 9.4 90 0.8 ENE 4 9 2 5 1028.4 1028.4 3.4
02/03:00am 10.9 9.4 9.2 89 0.8 NE 7 13 4 7 1028.3 1028.3 3.4
02/02:30am 13.0 11.7 11.1 88 1.0 NW 9 11 5 6 1028.2 1028.2 3.4
02/02:00am 12.8 11.0 10.7 87 1.1 WNW 11 13 6 7 1028.2 1028.2 3.4
02/01:30am 12.9 11.2 11.1 89 0.9 WNW 11 13 6 7 1028.2 1028.2 3.4
02/01:00am 12.8 10.3 11.2 90 0.8 WNW 15 17 8 9 1028.5 1028.5 3.4
02/12:30am 11.4 9.3 9.8 90 0.8 WNW 11 13 6 7 1028.7 1028.7 3.2
02/12:00am 12.2 9.9 10.4 89 0.9 WNW 13 15 7 8 1029.0 1029.0 3.2
 
Date/Time
CST
Temp
°C
App
Temp
°C
Dew
Point
°C
Rel
Hum
%
Delta-T
°C
Wind Press
QNH
hPa
Press
MSL
hPa
Rain since
9am
mm
Dir  Spd
km/h
Gust
km/h
Spd
kts
Gust
kts
01/11:30pm 12.2 9.7 10.9 92 0.7 NW 15 20 8 11 1029.1 1029.1 3.2
01/11:00pm 12.1 10.4 11.2 94 0.5 W 11 17 6 9 1029.2 1029.2 3.2
01/10:30pm 12.2 11.4 11.1 93 0.6 WSW 6 9 3 5 1029.1 1029.1 2.0
01/10:00pm 12.2 10.4 10.9 92 0.7 NW 11 17 6 9 1028.9 1028.9 2.0
01/09:30pm 12.6 10.1 11.2 91 0.7 WNW 15 19 8 10 1028.9 1028.9 1.8
01/09:00pm 11.9 10.0 10.6 92 0.7 WNW 11 15 6 8 1028.7 1028.7 1.8
01/08:30pm 12.5 9.7 11.4 93 0.6 WSW 17 22 9 12 1028.7 1028.7 1.8
01/08:00pm 12.4 9.1 10.8 90 0.8 WSW 19 26 10 14 1028.7 1028.7 1.8
01/07:30pm 12.9 10.1 10.1 83 1.4 WNW 15 19 8 10 1028.3 1028.3 1.8
01/07:00pm 12.7 9.8 9.7 82 1.5 W 15 22 8 12 1028.0 1028.0 1.8
01/06:30pm 13.1 9.9 11.3 89 0.9 W 19 26 10 14 1027.5 1027.5 1.8
01/06:00pm 12.4 9.9 11.0 91 0.7 WSW 15 20 8 11 1027.1 1027.1 1.8
01/05:30pm 13.0 11.4 11.6 91 0.7 WSW 11 19 6 10 1027.1 1027.1 1.6
01/05:00pm 12.7 11.9 11.1 90 0.8 SW 6 9 3 5 1027.0 1027.0 1.6
01/04:30pm 13.6 12.1 12.0 90 0.9 WSW 11 19 6 10 1026.8 1026.8 1.6
01/04:00pm 13.0 12.3 11.9 93 0.6 SW 7 9 4 5 1026.6 1026.6 1.6
01/03:30pm 13.1 12.0 12.0 93 0.6 W 9 13 5 7 1026.6 1026.6 1.6
01/03:00pm 13.3 11.7 11.7 90 0.8 W 11 15 6 8 1026.4 1026.4 1.2
01/02:30pm 13.3 10.2 11.7 90 0.8 WSW 19 24 10 13 1026.5 1026.5 1.2
01/02:00pm 14.4 12.1 10.4 77 2.1 W 13 17 7 9 1026.5 1026.5 0.0
01/01:30pm 13.7 11.3 11.4 86 1.2 NW 15 19 8 10 1026.5 1026.5 0.0
01/01:00pm 13.8 10.4 10.4 80 1.8 WSW 19 26 10 14 1027.0 1027.0 0.0
01/12:30pm 14.1 10.3 9.9 76 2.2 WSW 20 28 11 15 1027.2 1027.2 0.0
01/12:00pm 14.3 11.5 8.7 69 2.8 W 13 19 7 10 1027.4 1027.4 0.0
01/11:30am 14.1 11.3 8.7 70 2.7 W 13 19 7 10 1027.6 1027.6 0.0
01/11:00am 13.9 11.2 9.1 73 2.4 W 13 20 7 11 1027.9 1027.9 0.0
01/10:30am 13.9 10.8 8.7 71 2.6 W 15 20 8 11 1027.7 1027.7 0.0
01/10:00am 13.6 10.1 8.9 73 2.4 W 17 24 9 13 1027.4 1027.4 0.0
01/09:30am 13.6 10.1 8.7 72 2.4 W 17 24 9 13 1027.0 1027.0 0.0
01/09:00am 13.5 10.2 8.1 70 2.7 WSW 15 19 8 10 1026.9 1026.9 0.2
01/08:30am 12.9 9.0 8.6 75 2.1 WSW 19 24 10 13 1026.7 1026.7 0.2
01/08:00am 12.8 9.5 8.1 73 2.3 WSW 15 20 8 11 1026.3 1026.3 0.2
01/07:30am 12.7 8.7 8.2 74 2.2 WSW 19 24 10 13 1026.0 1026.0 0.2
01/07:00am 12.6 9.2 7.7 72 2.4 WSW 15 22 8 12 1025.6 1025.6 0.2
01/06:30am 12.3 8.5 7.6 73 2.3 WSW 17 22 9 12 1025.4 1025.4 0.2
01/06:00am 12.1 8.9 8.6 79 1.7 WSW 15 20 8 11 1024.9 1024.9 0.2
01/05:30am 11.7 8.1 8.4 80 1.6 SW 17 24 9 13 1024.8 1024.8 0.2
01/05:00am 11.7 8.2 8.6 81 1.5 WSW 17 24 9 13 1024.5 1024.5 0.2
01/04:30am 12.0 8.1 8.8 81 1.6 WSW 19 24 10 13 1024.2 1024.2 0.2
01/04:00am 12.2 7.9 7.9 75 2.1 WSW 20 30 11 16 1024.0 1024.0 0.2
01/03:30am 12.3 8.4 7.0 70 2.5 WSW 17 22 9 12 1023.8 1023.8 0.2
01/03:00am 12.3 8.5 7.4 72 2.4 WSW 17 22 9 12 1023.8 1023.8 0.2
01/02:30am 11.9 8.4 7.4 74 2.2 WSW 15 20 8 11 1023.5 1023.5 0.2
01/02:00am 12.1 7.8 6.8 70 2.5 WSW 19 24 10 13 1023.6 1023.6 0.2
01/01:30am 12.2 7.7 6.9 70 2.5 SW 20 26 11 14 1023.5 1023.5 0.2
01/01:00am 11.6 8.3 7.9 78 1.8 WSW 15 22 8 12 1023.7 1023.7 0.2
01/12:30am 11.6 8.1 7.1 74 2.1 SW 15 20 8 11 1023.5 1023.5 0.2
01/12:00am 10.6 9.2 7.1 79 1.7 S 4 4 2 2 1023.5 1023.5 0.2
 
Date/Time
CST
Temp
°C
App
Temp
°C
Dew
Point
°C
Rel
Hum
%
Delta-T
°C
Wind Press
QNH
hPa
Press
MSL
hPa
Rain since
9am
mm
Dir  Spd
km/h
Gust
km/h
Spd
kts
Gust
kts
30/11:30pm 12.0 6.8 7.1 72 2.3 SSW 24 35 13 19 1023.5 1023.5 0.2
30/11:00pm 11.5 7.0 6.2 70 2.5 SW 19 22 10 12 1022.9 1022.9 0.2
30/10:30pm 11.8 8.3 7.1 73 2.2 SW 15 20 8 11 1022.7 1022.7 0.2
30/10:00pm 12.2 7.5 6.0 66 2.9 SW 20 26 11 14 1022.2 1022.2 0.2
30/09:30pm 11.9 7.3 6.6 70 2.5 SW 20 30 11 16 1022.2 1022.2 0.2
30/09:00pm 11.9 7.0 6.8 71 2.4 SW 22 28 12 15 1022.1 1022.1 0.2
30/08:30pm 11.8 7.4 6.5 70 2.5 SW 19 26 10 14 1021.8 1021.8 0.2
30/08:00pm 11.6 5.1 6.3 70 2.5 SW 30 41 16 22 1021.8 1021.8 0.2
30/07:30pm 12.3 7.0 6.6 68 2.7 SW 24 32 13 17 1021.2 1021.2 0.2
30/07:00pm 11.9 7.1 5.8 66 2.8 SW 20 26 11 14 1020.7 1020.7 0.2
30/06:30pm 11.4 7.2 7.3 76 2.0 SW 19 28 10 15 1020.5 1020.5 0.2
30/06:00pm 11.6 5.9 6.7 72 2.3 SW 26 35 14 19 1020.3 1020.3 0.2
30/05:30pm 11.6 7.0 6.3 70 2.5 WSW 20 28 11 15 1019.8 1019.8 0.2
30/05:00pm 12.4 5.4 6.2 66 2.9 SW 32 43 17 23 1019.3 1019.3 0.2
30/04:30pm 12.7 6.7 5.1 60 3.5 SW 26 35 14 19 1019.0 1019.0 0.2
30/04:09pm 13.2 6.7 4.6 56 4.0 SW 28 46 15 25 1018.8 1018.8 0.2
30/04:00pm 13.3 5.8 4.5 55 4.0 SW 33 46 18 25 1018.7 1018.7 0.2
30/03:30pm 13.8 6.8 4.1 52 4.4 SW 30 39 16 21 1018.1 1018.2 0.2
30/03:00pm 13.0 5.8 4.9 58 3.7 SW 32 41 17 22 1017.7 1017.8 0.2
30/02:30pm 13.2 5.7 6.1 62 3.4 SW 35 48 19 26 1017.5 1017.6 0.2
30/02:00pm 14.0 5.7 4.3 52 4.5 SW 37 48 20 26 1017.3 1017.4 0.2
30/01:30pm 14.1 5.8 4.1 51 4.6 SW 37 50 20 27 1017.3 1017.4 0.2
30/01:00pm 13.6 6.0 5.7 59 3.7 SW 35 48 19 26 1017.2 1017.3 0.2
30/12:30pm 14.4 6.6 6.5 59 3.8 SW 37 48 20 26 1017.1 1017.2 0.2
30/12:00pm 13.9 6.6 7.0 63 3.4 SW 35 44 19 24 1017.3 1017.4 0.2
30/11:30am 14.3 6.7 7.4 63 3.4 WSW 37 48 20 26 1017.3 1017.4 0.2
30/11:00am 13.9 5.4 7.0 63 3.4 SW 41 57 22 31 1017.0 1017.1 0.2
30/10:30am 14.0 7.6 8.4 69 2.8 WSW 32 46 17 25 1016.6 1016.7 0.2
30/10:00am 13.8 8.1 9.8 77 2.1 WSW 30 41 16 22 1016.2 1016.3 0.2
30/09:30am 12.3 5.8 10.4 88 1.0 SW 35 52 19 28 1015.9 1016.0 0.2
30/09:19am 13.3 7.5 10.7 84 1.4 WSW 32 54 17 29 1015.7 1015.8 0.2
30/09:00am 13.7 7.3 10.7 82 1.6 SW 35 46 19 25 1015.2 1015.3 4.8
30/08:30am 13.5 6.7 9.2 75 2.2 WSW 35 54 19 29 1014.8 1014.9 4.8
30/08:28am 14.3 8.1 9.5 73 2.5 WSW 32 54 17 29 1014.8 1014.9 4.8
30/08:00am 13.9 7.3 9.9 77 2.1 WSW 35 46 19 25 1014.3 1014.3 4.8
30/07:47am 13.3 8.2 12.0 92 0.7 W 30 48 16 26 1014.0 1014.0 4.8
30/07:30am 13.0 7.8 11.6 91 0.7 W 30 43 16 23 1013.7 1013.7 4.0
30/07:00am 13.9 8.8 11.8 87 1.1 WNW 30 54 16 29 1013.1 1013.1 3.6
30/06:32am 14.1 9.0 10.7 80 1.8 W 28 52 15 28 1013.0 1013.0 3.4
30/06:30am 14.6 10.3 10.6 77 2.1 W 24 41 13 22 1012.7 1012.7 3.4
30/06:00am 14.4 10.5 10.8 79 1.9 W 22 32 12 17 1012.4 1012.4 3.4
30/05:30am 14.6 8.3 9.8 73 2.5 W 33 46 18 25 1012.2 1012.2 3.4
30/05:00am 14.4 8.0 9.4 72 2.6 W 33 48 18 26 1012.1 1012.1 3.4
30/04:30am 14.5 9.0 10.7 78 2.0 W 30 43 16 23 1012.1 1012.1 3.4
30/04:00am 14.4 9.0 11.0 80 1.8 W 30 43 16 23 1012.1 1012.1 3.4
30/03:30am 14.3 10.0 12.0 86 1.2 W 26 35 14 19 1012.0 1012.0 3.4
30/03:00am 13.8 9.1 12.0 89 1.0 W 28 39 15 21 1011.9 1011.9 3.4
30/02:47am 13.4 7.3 10.6 83 1.5 W 33 54 18 29 1012.1 1012.1 3.0
30/02:30am 14.8 10.6 12.3 85 1.4 WNW 26 35 14 19 1011.9 1011.9 2.2
30/02:00am 14.7 10.2 12.6 87 1.2 WNW 28 37 15 20 1012.1 1012.1 2.2
30/01:30am 13.9 9.4 11.4 85 1.3 WNW 26 37 14 20 1012.1 1012.1 2.2
30/01:07am 14.8 10.4 13.0 89 1.0 WNW 28 46 15 25 1012.0 1012.0 2.2
30/01:00am 14.4 9.4 12.1 86 1.2 WNW 30 43 16 23 1012.0 1012.0 2.2
30/12:30am 15.0 10.0 13.4 90 0.9 WNW 32 39 17 21 1012.4 1012.4 2.0
30/12:00am 14.8 9.4 12.8 88 1.1 WNW 33 44 18 24 1012.5 1012.5 2.0
 
Date/Time
CST
Temp
°C
App
Temp
°C
Dew
Point
°C
Rel
Hum
%
Delta-T
°C
Wind Press
QNH
hPa
Press
MSL
hPa
Rain since
9am
mm
Dir  Spd
km/h
Gust
km/h
Spd
kts
Gust
kts
29/11:30pm 14.2 8.4 12.8 91 0.8 WNW 35 50 19 27 1012.8 1012.8 2.0
29/11:10pm 15.0 8.5 11.8 81 1.7 NW 37 54 20 29 1012.8 1012.8 0.2
29/11:00pm 14.5 10.2 10.9 79 1.9 NNW 24 39 13 21 1012.4 1012.4 0.2
29/10:30pm 14.0 8.4 8.6 70 2.7 NNW 28 41 15 22 1012.5 1012.5 0.0
29/10:00pm 13.8 8.1 8.2 69 2.8 NNW 28 37 15 20 1012.3 1012.3 0.0
29/09:30pm 13.5 8.6 8.6 72 2.5 NNW 24 35 13 19 1012.6 1012.6 0.0
29/09:00pm 13.6 8.7 8.4 71 2.6 NNW 24 33 13 18 1013.1 1013.1 0.0
29/08:30pm 14.1 8.7 7.9 66 3.1 N 26 35 14 19 1012.9 1012.9 0.0
29/08:00pm 14.1 8.7 7.9 66 3.1 N 26 33 14 18 1013.1 1013.1 0.0
29/07:30pm 13.9 8.6 8.5 70 2.7 N 26 37 14 20 1013.3 1013.3 0.0
29/07:00pm 13.9 10.1 9.7 76 2.2 N 20 24 11 13 1013.4 1013.4 0.0
29/06:30pm 14.4 9.4 9.6 73 2.5 NNW 26 35 14 19 1013.7 1013.7 0.0
29/06:00pm 14.5 9.0 9.3 71 2.7 NNW 28 39 15 21 1013.6 1013.6 0.0
29/05:30pm 14.7 8.8 8.9 68 3.0 NNW 30 43 16 23 1013.9 1013.9 0.0
29/05:00pm 15.0 9.6 9.4 69 2.9 NW 28 39 15 21 1014.1 1014.1 0.0
29/04:30pm 15.4 10.8 9.5 68 3.1 NNW 24 35 13 19 1014.0 1014.0 0.0
29/04:00pm 15.7 9.6 8.2 61 3.8 NNW 30 37 16 20 1014.1 1014.1 0.0
29/03:30pm 15.9 9.1 7.9 59 4.0 NNW 33 41 18 22 1014.0 1014.0 0.0
29/03:00pm 16.1 9.4 8.3 60 4.0 NNW 33 44 18 24 1014.3 1014.3 0.0
29/02:30pm 16.1 9.4 8.1 59 4.0 NNW 33 44 18 24 1014.5 1014.5 0.0
29/02:00pm 16.2 9.4 7.9 58 4.2 NNW 33 41 18 22 1014.8 1014.9 0.0
29/01:30pm 15.8 8.6 7.6 58 4.1 NNW 35 48 19 26 1015.2 1015.3 0.0
29/01:00pm 15.3 8.0 7.3 59 4.0 NNW 35 44 19 24 1015.7 1015.8 0.0
29/12:30pm 15.2 7.9 7.3 59 3.9 NNW 35 52 19 28 1016.4 1016.5 0.0
29/12:00pm 14.8 7.9 7.4 61 3.6 NNW 33 44 18 24 1017.0 1017.1 0.0
29/11:30am 14.1 6.7 6.7 61 3.6 N 35 52 19 28 1017.8 1017.9 0.0

Other Formats:

Comma delimited format used in spreadsheet applications
http://www.bom.gov.au/fwo/IDS60801/IDS60801.94658.axf

JavaScript Object Notation format (JSON) in row-major order
http://www.bom.gov.au/fwo/IDS60801/IDS60801.94658.json